Date,TemperatureHighF,TemperatureAvgF,TemperatureLowF,DewpointHighF,DewpointAvgF,DewpointLowF,HumidityHigh,HumidityAvg,HumidityLow,PressureMaxIn,PressureMinIn,WindSpeedMaxMPH,WindSpeedAvgMPH,GustSpeedMaxMPH,PrecipitationSumIn
2013-10-1,53.6,43.0,32.0,34.5,31.6,27.7,86,66,42,29.87,29.52,4,1,0,0.00
2013-10-2,50.0,38.1,26.6,37.5,32.2,26.1,98,81,55,30.07,29.87,3,1,0,0.00
2013-10-3,53.6,38.5,28.4,37.5,31.1,27.0,98,79,38,30.26,30.07,4,1,0,0.00
2013-10-4,53.6,41.9,30.2,39.9,33.6,27.1,98,74,49,30.27,30.09,5,2,0,0.94
2013-10-5,62.6,51.2,44.6,45.2,40.2,35.1,75,66,51,30.11,29.97,5,2,0,0.00
2013-10-6,60.8,52.8,50.0,47.7,43.2,36.2,82,70,57,29.97,29.58,4,2,0,0.00
2013-10-7,59.0,49.0,42.8,42.3,37.0,32.8,98,65,43,29.61,29.49,6,2,0,0.02
2013-10-8,44.6,37.5,32.0,42.3,33.1,29.1,98,85,65,30.01,29.61,6,1,0,0.91
2013-10-9,50.0,37.7,28.4,38.3,32.8,27.9,98,84,54,30.02,29.68,5,1,0,0.05
2013-10-10,50.0,38.4,30.2,37.4,31.6,26.8,98,79,45,29.91,29.68,4,1,0,0.02
2013-10-11,50.0,38.4,30.2,34.0,30.4,26.8,98,75,50,29.98,29.91,4,0,0,0.00
2013-10-12,44.6,37.0,33.8,36.1,33.2,29.7,98,86,69,30.13,29.95,3,0,0,0.00
2013-10-13,51.8,38.5,30.2,35.2,31.7,27.4,98,79,46,30.27,30.13,4,1,0,0.00
2013-10-14,57.2,37.7,24.8,38.8,31.5,22.6,98,81,47,30.35,30.27,4,1,0,0.00
2013-10-15,48.2,38.4,32.0,42.3,36.4,31.5,98,93,69,30.27,30.13,3,0,0,0.08
2013-10-16,51.8,41.9,32.0,44.1,38.6,31.5,98,89,60,30.17,30.12,4,1,0,0.02
2013-10-17,50.0,34.8,26.6,40.3,32.7,26.1,98,93,66,30.27,30.15,2,0,0,0.00
2013-10-18,57.2,38.0,28.4,41.7,33.9,27.9,98,87,55,30.19,30.04,2,0,0,0.00
2013-10-19,60.8,42.2,30.2,43.1,35.6,29.7,98,81,48,30.09,30.04,5,1,0,0.00
2013-10-20,64.4,45.6,33.8,46.2,38.9,33.0,98,80,48,30.11,30.07,4,1,0,0.00
2013-10-21,62.6,43.5,32.0,46.4,38.4,31.5,98,85,50,30.12,30.03,4,0,0,0.00
2013-10-22,60.8,42.7,30.2,45.6,37.9,29.7,98,85,51,30.10,30.01,3,0,0,0.00
2013-10-23,64.4,44.6,32.0,47.9,39.8,31.5,98,86,54,30.07,29.97,3,0,0,0.00
2013-10-24,62.6,43.6,33.8,44.7,38.2,33.3,98,84,47,30.03,29.94,2,0,0,0.75
2013-10-25,57.2,39.0,28.4,44.3,34.7,-55.8,98,88,59,30.17,30.03,3,0,0,0.00
2013-10-26,53.6,40.1,32.0,44.1,37.0,31.5,98,90,62,30.20,29.94,3,0,0,0.31
2013-10-27,48.2,39.3,30.2,40.5,34.7,23.9,98,84,67,30.20,29.88,8,2,0,0.27
2013-10-28,39.2,28.3,21.2,24.8,21.6,18.2,89,76,55,30.21,29.98,6,1,0,0.00
2013-10-29,46.4,29.6,19.4,27.8,22.1,16.7,90,76,44,29.99,29.76,3,1,0,0.00
2013-10-30,50.0,37.6,28.4,32.6,28.5,24.2,85,71,49,29.82,29.68,3,1,0,0.00
2013-10-31,51.8,38.9,32.0,38.1,33.1,29.4,98,81,53,29.97,29.72,3,1,0,0.01